createdAt,value
2022-11-13T06:03:06.371Z,1.85
2022-11-13T06:08:28.726Z,1.42
2022-11-13T06:13:51.849Z,1.67
2022-11-13T06:19:15.189Z,1.90
2022-11-13T06:24:37.042Z,1.52
2022-11-13T06:29:58.805Z,1.77
2022-11-13T06:35:22.146Z,1.87
2022-11-13T06:40:44.085Z,1.50
2022-11-13T06:46:07.336Z,1.85
2022-11-13T06:51:31.766Z,1.55
2022-11-13T06:56:53.785Z,1.77
2022-11-13T07:02:15.585Z,1.87
2022-11-13T07:07:38.903Z,1.80
2022-11-13T07:13:01.569Z,1.48
2022-11-13T07:18:24.252Z,1.42
2022-11-13T07:23:49.377Z,1.27
2022-11-13T07:29:12.628Z,1.60
2022-11-13T07:34:34.411Z,1.60
2022-11-13T07:39:57.506Z,1.60
2022-11-13T07:45:19.671Z,1.40
2022-11-13T07:50:41.652Z,1.80
2022-11-13T07:56:05.282Z,1.50
2022-11-13T08:01:27.492Z,1.70
2022-11-13T08:06:49.371Z,1.73
2022-11-13T08:12:12.247Z,1.95
2022-11-13T08:17:34.235Z,1.98
2022-11-13T08:22:58.418Z,1.42
2022-11-13T08:28:21.820Z,1.80
2022-11-13T08:33:44.430Z,1.70
2022-11-13T08:39:06.345Z,1.60
2022-11-13T08:44:29.733Z,1.95
2022-11-13T08:49:51.577Z,1.33
2022-11-13T08:55:13.292Z,1.60
2022-11-13T09:00:36.529Z,1.35
2022-11-13T09:05:58.231Z,1.45
2022-11-13T09:11:20.341Z,1.75
2022-11-13T09:16:43.488Z,1.73
2022-11-13T09:22:05.437Z,1.87
2022-11-13T09:27:27.401Z,1.55
2022-11-13T09:32:54.110Z,1.80
2022-11-13T09:38:17.292Z,1.70
2022-11-13T09:43:43.479Z,2.03
2022-11-13T09:49:17.579Z,2.05
2022-11-13T09:54:39.883Z,2.12
2022-11-13T10:00:04.579Z,2.22
2022-11-13T10:05:38.492Z,2.25
2022-11-13T10:11:09.077Z,2.30
2022-11-13T10:16:34.348Z,2.53
2022-11-13T10:22:31.060Z,2.47
2022-11-13T10:27:46.485Z,2.17
2022-11-13T10:33:10.619Z,2.30
2022-11-13T10:38:42.943Z,2.37
2022-11-13T10:44:19.755Z,2.37
2022-11-13T10:49:41.599Z,1.65
2022-11-13T10:55:17.214Z,3.40
2022-11-13T11:00:41.542Z,2.80
2022-11-13T11:06:05.617Z,2.03
2022-11-13T11:11:46.267Z,1.90
2022-11-13T11:17:09.039Z,2.25
2022-11-13T11:22:34.960Z,2.78
2022-11-13T11:28:03.502Z,1.58
2022-11-13T11:33:33.060Z,1.42
2022-11-13T11:39:00.669Z,1.80
2022-11-13T11:44:30.703Z,2.47
2022-11-13T11:49:52.700Z,2.55
2022-11-13T11:55:38.610Z,2.10
2022-11-13T12:01:06.022Z,1.67
2022-11-13T12:06:41.713Z,1.90
2022-11-13T12:12:12.694Z,1.80
2022-11-13T12:17:50.180Z,1.73
2022-11-13T12:23:37.880Z,2.08
2022-11-13T12:29:09.808Z,1.45
2022-11-13T12:34:39.308Z,1.67
2022-11-13T12:40:06.961Z,1.87
2022-11-13T12:45:41.463Z,1.75
2022-11-13T12:51:07.661Z,1.00
2022-11-13T12:56:33.911Z,1.05
2022-11-13T13:02:05.285Z,1.45
2022-11-13T13:07:45.215Z,0.82
2022-11-13T13:13:20.964Z,0.93
2022-11-13T13:18:45.751Z,1.08
2022-11-13T13:24:30.102Z,0.50
2022-11-13T13:29:51.967Z,0.90
2022-11-13T13:35:18.821Z,0.93
2022-11-13T13:40:54.023Z,1.77
2022-11-13T13:46:18.865Z,0.98
2022-11-13T13:51:43.778Z,1.23
2022-11-13T13:57:12.208Z,1.10
2022-11-13T14:02:34.005Z,1.08
2022-11-13T14:07:56.327Z,1.20
2022-11-13T14:13:26.717Z,0.93
2022-11-13T14:18:48.484Z,1.33
2022-11-13T14:24:16.290Z,1.15
2022-11-13T14:29:46.088Z,1.50
2022-11-13T14:35:09.766Z,1.37
2022-11-13T14:40:33.984Z,1.50
2022-11-13T14:45:59.600Z,1.40
2022-11-13T14:51:25.690Z,1.02
2022-11-13T14:56:47.470Z,1.45
2022-11-13T15:02:12.979Z,1.50
2022-11-13T15:07:35.658Z,1.42
2022-11-13T15:12:57.657Z,1.37
2022-11-13T15:18:21.209Z,1.40
2022-11-13T15:23:43.020Z,1.17
2022-11-13T15:29:05.342Z,1.40
2022-11-13T15:34:28.652Z,2.35
2022-11-13T15:39:50.330Z,1.90
2022-11-13T15:45:16.419Z,1.90
2022-11-13T15:50:39.819Z,2.15
2022-11-13T15:56:05.069Z,2.42
2022-11-13T16:01:26.932Z,2.35
2022-11-13T16:06:50.553Z,2.28
2022-11-13T16:12:13.560Z,2.92
2022-11-13T16:17:42.427Z,3.10
2022-11-13T16:23:05.483Z,2.37
2022-11-13T16:28:27.159Z,2.75
2022-11-13T16:33:48.764Z,3.20
2022-11-13T16:39:17.100Z,2.42
2022-11-13T16:44:39.251Z,3.35
2022-11-13T16:50:02.075Z,3.20
2022-11-13T16:55:25.339Z,2.78
2022-11-13T17:00:47.180Z,3.28
2022-11-13T17:06:14.186Z,3.10
2022-11-13T17:11:37.240Z,2.95
2022-11-13T17:16:58.915Z,3.08
2022-11-13T17:22:20.519Z,3.15
2022-11-13T17:27:44.352Z,3.53
2022-11-13T17:33:06.035Z,2.47
2022-11-13T17:38:28.743Z,2.85
2022-11-13T17:43:52.380Z,2.95
2022-11-13T17:49:17.054Z,3.20
2022-11-13T17:54:38.904Z,3.15
2022-11-13T18:00:01.925Z,3.70
2022-11-13T18:05:24.137Z,3.17
2022-11-13T18:10:45.914Z,4.07
2022-11-13T18:16:11.038Z,3.15
2022-11-13T18:21:34.536Z,3.17
2022-11-13T18:26:56.785Z,3.25
2022-11-13T18:32:20.065Z,3.08
2022-11-13T18:37:41.985Z,3.97
2022-11-13T18:43:03.731Z,4.55
2022-11-13T18:48:30.866Z,3.20
2022-11-13T18:53:53.258Z,3.50
2022-11-13T18:59:15.020Z,3.15
2022-11-13T19:04:38.166Z,3.62
2022-11-13T19:09:59.904Z,3.55
2022-11-13T19:15:21.482Z,4.43
2022-11-13T19:20:44.604Z,3.78
2022-11-13T19:26:07.231Z,4.00
2022-11-13T19:31:29.229Z,4.07
2022-11-13T19:36:53.114Z,4.78
2022-11-13T19:42:14.921Z,4.47
2022-11-13T19:47:36.688Z,4.05
2022-11-13T19:52:59.869Z,4.25
2022-11-13T19:58:21.762Z,4.53
2022-11-13T20:03:44.067Z,3.17
2022-11-13T20:09:07.780Z,4.62
2022-11-13T20:14:34.371Z,4.63
2022-11-13T20:19:59.211Z,3.47
2022-11-13T20:25:22.962Z,3.50
2022-11-13T20:30:45.284Z,4.07
2022-11-13T20:36:08.183Z,3.67
2022-11-13T20:41:31.460Z,3.92
2022-11-13T20:46:53.120Z,3.85
2022-11-13T20:52:14.932Z,3.80
2022-11-13T20:57:41.024Z,2.95
2022-11-13T21:03:03.766Z,3.30
2022-11-13T21:08:26.499Z,3.03
2022-11-13T21:13:51.364Z,3.03
2022-11-13T21:19:13.549Z,2.53
2022-11-13T21:24:37.902Z,2.83
2022-11-13T21:30:01.336Z,3.73
2022-11-13T21:35:23.027Z,2.75
2022-11-13T21:41:04.718Z,2.97
2022-11-13T21:46:29.838Z,2.47
2022-11-13T21:57:14.330Z,2.60
2022-11-13T22:02:37.727Z,2.70
2022-11-13T22:07:59.577Z,3.00
2022-11-13T22:13:21.132Z,3.40
2022-11-13T22:18:44.297Z,2.42
2022-11-13T22:24:07.817Z,2.42
2022-11-13T22:29:29.539Z,2.45
2022-11-13T22:34:52.562Z,2.87
2022-11-13T22:40:14.630Z,2.20
2022-11-13T22:45:36.537Z,2.00
2022-11-13T22:51:03.949Z,3.47
2022-11-13T22:56:27.329Z,3.65
2022-11-13T23:01:49.098Z,2.55
2022-11-13T23:07:12.322Z,2.42
2022-11-13T23:12:34.145Z,3.12
2022-11-13T23:17:55.781Z,2.55
2022-11-13T23:23:18.808Z,2.50
2022-11-13T23:28:40.842Z,2.05
